sensor_id;sensor_type;location;lat;lon;timestamp;P1;durP1;ratioP1;P2;durP2;ratioP2
23555;SDS011;11956;53.184;8.578;2023-07-20T00:00:14;2.80;;;2.10;;
23555;SDS011;11956;53.184;8.578;2023-07-20T00:03:15;3.88;;;2.58;;
23555;SDS011;11956;53.184;8.578;2023-07-20T00:06:19;2.55;;;2.35;;
23555;SDS011;11956;53.184;8.578;2023-07-20T00:09:19;2.97;;;2.03;;
23555;SDS011;11956;53.184;8.578;2023-07-20T00:12:21;2.95;;;2.40;;
23555;SDS011;11956;53.184;8.578;2023-07-20T00:15:22;3.72;;;2.30;;
23555;SDS011;11956;53.184;8.578;2023-07-20T00:18:23;2.53;;;2.15;;
23555;SDS011;11956;53.184;8.578;2023-07-20T00:21:24;2.97;;;2.20;;
23555;SDS011;11956;53.184;8.578;2023-07-20T00:24:25;3.70;;;2.38;;
23555;SDS011;11956;53.184;8.578;2023-07-20T00:27:27;2.88;;;2.45;;
23555;SDS011;11956;53.184;8.578;2023-07-20T00:30:28;3.17;;;2.20;;
23555;SDS011;11956;53.184;8.578;2023-07-20T00:33:28;3.00;;;2.70;;
23555;SDS011;11956;53.184;8.578;2023-07-20T00:36:29;2.67;;;2.47;;
23555;SDS011;11956;53.184;8.578;2023-07-20T00:39:30;4.25;;;2.50;;
23555;SDS011;11956;53.184;8.578;2023-07-20T00:42:33;2.40;;;2.20;;
23555;SDS011;11956;53.184;8.578;2023-07-20T00:45:34;2.55;;;2.33;;
23555;SDS011;11956;53.184;8.578;2023-07-20T00:48:36;2.80;;;2.30;;
23555;SDS011;11956;53.184;8.578;2023-07-20T00:51:38;2.85;;;2.35;;
23555;SDS011;11956;53.184;8.578;2023-07-20T00:54:39;2.70;;;2.50;;
23555;SDS011;11956;53.184;8.578;2023-07-20T00:57:41;4.38;;;2.67;;
23555;SDS011;11956;53.184;8.578;2023-07-20T01:00:42;3.85;;;2.17;;
23555;SDS011;11956;53.184;8.578;2023-07-20T01:03:44;2.63;;;2.22;;
23555;SDS011;11956;53.184;8.578;2023-07-20T01:06:48;2.78;;;2.58;;
23555;SDS011;11956;53.184;8.578;2023-07-20T01:13:13;2.10;;;1.90;;
23555;SDS011;11956;53.184;8.578;2023-07-20T01:16:15;2.25;;;2.10;;
23555;SDS011;11956;53.184;8.578;2023-07-20T01:19:16;2.58;;;2.20;;
23555;SDS011;11956;53.184;8.578;2023-07-20T01:32:35;3.00;;;1.83;;
23555;SDS011;11956;53.184;8.578;2023-07-20T01:35:41;2.80;;;2.13;;
23555;SDS011;11956;53.184;8.578;2023-07-20T01:38:44;1.70;;;1.60;;
23555;SDS011;11956;53.184;8.578;2023-07-20T01:41:46;1.90;;;1.80;;
23555;SDS011;11956;53.184;8.578;2023-07-20T01:44:47;1.75;;;1.65;;
23555;SDS011;11956;53.184;8.578;2023-07-20T01:47:48;3.28;;;2.08;;
23555;SDS011;11956;53.184;8.578;2023-07-20T01:50:49;2.05;;;1.85;;
23555;SDS011;11956;53.184;8.578;2023-07-20T01:53:49;2.53;;;1.98;;
23555;SDS011;11956;53.184;8.578;2023-07-20T01:56:50;2.38;;;2.17;;
23555;SDS011;11956;53.184;8.578;2023-07-20T01:59:52;2.80;;;2.42;;
23555;SDS011;11956;53.184;8.578;2023-07-20T02:02:53;2.80;;;2.58;;
23555;SDS011;11956;53.184;8.578;2023-07-20T02:05:54;2.33;;;2.13;;
23555;SDS011;11956;53.184;8.578;2023-07-20T02:08:55;2.67;;;2.42;;
23555;SDS011;11956;53.184;8.578;2023-07-20T02:11:55;3.10;;;2.60;;
23555;SDS011;11956;53.184;8.578;2023-07-20T02:14:57;3.30;;;2.70;;
23555;SDS011;11956;53.184;8.578;2023-07-20T02:17:58;2.67;;;2.38;;
23555;SDS011;11956;53.184;8.578;2023-07-20T02:20:58;2.88;;;2.60;;
23555;SDS011;11956;53.184;8.578;2023-07-20T02:23:59;3.45;;;2.65;;
23555;SDS011;11956;53.184;8.578;2023-07-20T02:27:00;4.85;;;3.28;;
23555;SDS011;11956;53.184;8.578;2023-07-20T02:30:01;3.20;;;2.90;;
23555;SDS011;11956;53.184;8.578;2023-07-20T02:33:03;3.03;;;2.70;;
23555;SDS011;11956;53.184;8.578;2023-07-20T02:36:06;3.92;;;3.30;;
23555;SDS011;11956;53.184;8.578;2023-07-20T02:39:07;3.63;;;3.30;;
23555;SDS011;11956;53.184;8.578;2023-07-20T02:42:08;3.45;;;3.15;;
23555;SDS011;11956;53.184;8.578;2023-07-20T02:45:09;3.80;;;3.50;;
23555;SDS011;11956;53.184;8.578;2023-07-20T02:48:10;4.50;;;3.45;;
23555;SDS011;11956;53.184;8.578;2023-07-20T02:51:11;3.95;;;3.65;;
23555;SDS011;11956;53.184;8.578;2023-07-20T02:54:12;5.00;;;3.50;;
23555;SDS011;11956;53.184;8.578;2023-07-20T02:57:13;4.07;;;3.75;;
23555;SDS011;11956;53.184;8.578;2023-07-20T03:00:14;4.82;;;4.15;;
23555;SDS011;11956;53.184;8.578;2023-07-20T03:03:16;4.07;;;3.60;;
23555;SDS011;11956;53.184;8.578;2023-07-20T03:06:17;4.93;;;3.88;;
23555;SDS011;11956;53.184;8.578;2023-07-20T03:09:18;4.20;;;3.60;;
23555;SDS011;11956;53.184;8.578;2023-07-20T03:12:19;4.28;;;3.88;;
23555;SDS011;11956;53.184;8.578;2023-07-20T03:15:20;4.38;;;3.30;;
23555;SDS011;11956;53.184;8.578;2023-07-20T03:18:21;4.60;;;3.92;;
23555;SDS011;11956;53.184;8.578;2023-07-20T03:21:22;4.18;;;3.78;;
23555;SDS011;11956;53.184;8.578;2023-07-20T03:24:22;5.22;;;3.83;;
23555;SDS011;11956;53.184;8.578;2023-07-20T03:27:24;4.85;;;3.90;;
23555;SDS011;11956;53.184;8.578;2023-07-20T03:30:25;4.10;;;3.53;;
23555;SDS011;11956;53.184;8.578;2023-07-20T03:33:27;5.22;;;4.70;;
23555;SDS011;11956;53.184;8.578;2023-07-20T03:36:31;4.85;;;3.92;;
23555;SDS011;11956;53.184;8.578;2023-07-20T03:39:32;4.55;;;3.75;;
23555;SDS011;11956;53.184;8.578;2023-07-20T03:42:33;4.05;;;3.58;;
23555;SDS011;11956;53.184;8.578;2023-07-20T03:45:34;4.70;;;4.20;;
23555;SDS011;11956;53.184;8.578;2023-07-20T03:48:35;4.55;;;4.15;;
23555;SDS011;11956;53.184;8.578;2023-07-20T03:51:36;6.82;;;4.25;;
23555;SDS011;11956;53.184;8.578;2023-07-20T03:54:37;6.68;;;3.80;;
23555;SDS011;11956;53.184;8.578;2023-07-20T03:57:38;4.82;;;4.15;;
23555;SDS011;11956;53.184;8.578;2023-07-20T04:00:38;5.68;;;3.60;;
23555;SDS011;11956;53.184;8.578;2023-07-20T04:03:40;4.35;;;3.95;;
23555;SDS011;11956;53.184;8.578;2023-07-20T04:06:41;8.40;;;4.30;;
23555;SDS011;11956;53.184;8.578;2023-07-20T04:09:44;4.33;;;3.93;;
23555;SDS011;11956;53.184;8.578;2023-07-20T04:12:45;4.63;;;3.58;;
23555;SDS011;11956;53.184;8.578;2023-07-20T04:15:49;5.50;;;3.85;;
23555;SDS011;11956;53.184;8.578;2023-07-20T04:18:49;6.32;;;3.88;;
23555;SDS011;11956;53.184;8.578;2023-07-20T04:21:50;5.43;;;3.47;;
23555;SDS011;11956;53.184;8.578;2023-07-20T04:24:51;4.07;;;3.13;;
23555;SDS011;11956;53.184;8.578;2023-07-20T04:27:52;6.00;;;3.30;;
23555;SDS011;11956;53.184;8.578;2023-07-20T04:30:53;5.55;;;3.03;;
23555;SDS011;11956;53.184;8.578;2023-07-20T04:33:56;3.50;;;2.70;;
23555;SDS011;11956;53.184;8.578;2023-07-20T04:36:58;3.75;;;2.00;;
23555;SDS011;11956;53.184;8.578;2023-07-20T04:40:01;2.83;;;1.87;;
23555;SDS011;11956;53.184;8.578;2023-07-20T04:43:03;3.03;;;1.97;;
23555;SDS011;11956;53.184;8.578;2023-07-20T04:46:04;4.65;;;2.20;;
23555;SDS011;11956;53.184;8.578;2023-07-20T04:49:07;2.88;;;1.55;;
23555;SDS011;11956;53.184;8.578;2023-07-20T04:52:13;2.20;;;2.00;;
23555;SDS011;11956;53.184;8.578;2023-07-20T04:55:14;3.17;;;1.77;;
23555;SDS011;11956;53.184;8.578;2023-07-20T04:58:15;2.03;;;1.80;;
23555;SDS011;11956;53.184;8.578;2023-07-20T05:01:17;4.05;;;2.00;;
23555;SDS011;11956;53.184;8.578;2023-07-20T05:04:18;2.83;;;1.80;;
23555;SDS011;11956;53.184;8.578;2023-07-20T05:07:19;1.98;;;1.60;;
23555;SDS011;11956;53.184;8.578;2023-07-20T05:10:20;4.35;;;1.70;;
23555;SDS011;11956;53.184;8.578;2023-07-20T05:13:21;1.88;;;1.50;;
23555;SDS011;11956;53.184;8.578;2023-07-20T05:16:22;2.78;;;1.35;;
23555;SDS011;11956;53.184;8.578;2023-07-20T05:19:24;2.05;;;1.08;;
23555;SDS011;11956;53.184;8.578;2023-07-20T05:22:26;3.70;;;3.30;;
23555;SDS011;11956;53.184;8.578;2023-07-20T05:25:27;1.65;;;1.27;;
23555;SDS011;11956;53.184;8.578;2023-07-20T05:28:28;3.22;;;1.30;;
23555;SDS011;11956;53.184;8.578;2023-07-20T05:31:29;3.80;;;1.40;;
23555;SDS011;11956;53.184;8.578;2023-07-20T05:34:31;1.43;;;0.83;;
23555;SDS011;11956;53.184;8.578;2023-07-20T05:37:32;1.60;;;0.90;;
23555;SDS011;11956;53.184;8.578;2023-07-20T05:40:35;2.38;;;1.10;;
23555;SDS011;11956;53.184;8.578;2023-07-20T05:43:38;1.75;;;0.73;;
23555;SDS011;11956;53.184;8.578;2023-07-20T05:46:39;3.33;;;0.93;;
23555;SDS011;11956;53.184;8.578;2023-07-20T05:49:40;3.03;;;0.75;;
23555;SDS011;11956;53.184;8.578;2023-07-20T05:52:41;2.13;;;0.73;;
23555;SDS011;11956;53.184;8.578;2023-07-20T05:55:42;3.08;;;0.70;;
23555;SDS011;11956;53.184;8.578;2023-07-20T05:58:42;2.35;;;0.70;;
23555;SDS011;11956;53.184;8.578;2023-07-20T06:01:43;3.03;;;0.77;;
23555;SDS011;11956;53.184;8.578;2023-07-20T06:04:44;2.03;;;0.80;;
23555;SDS011;11956;53.184;8.578;2023-07-20T06:07:45;3.78;;;0.80;;
23555;SDS011;11956;53.184;8.578;2023-07-20T06:10:49;2.83;;;1.00;;
23555;SDS011;11956;53.184;8.578;2023-07-20T06:13:52;4.50;;;0.88;;
23555;SDS011;11956;53.184;8.578;2023-07-20T06:16:53;1.77;;;0.50;;
23555;SDS011;11956;53.184;8.578;2023-07-20T06:19:54;1.88;;;0.30;;
23555;SDS011;11956;53.184;8.578;2023-07-20T06:22:55;2.63;;;0.50;;
23555;SDS011;11956;53.184;8.578;2023-07-20T06:25:56;1.23;;;0.40;;
23555;SDS011;11956;53.184;8.578;2023-07-20T06:28:56;2.13;;;0.40;;
23555;SDS011;11956;53.184;8.578;2023-07-20T06:31:57;1.88;;;0.50;;
23555;SDS011;11956;53.184;8.578;2023-07-20T06:34:58;2.05;;;0.43;;
23555;SDS011;11956;53.184;8.578;2023-07-20T06:37:59;2.75;;;0.50;;
23555;SDS011;11956;53.184;8.578;2023-07-20T06:41:00;1.73;;;0.60;;
23555;SDS011;11956;53.184;8.578;2023-07-20T06:44:01;2.40;;;0.52;;
23555;SDS011;11956;53.184;8.578;2023-07-20T06:47:03;1.58;;;0.52;;
23555;SDS011;11956;53.184;8.578;2023-07-20T06:50:04;1.48;;;0.63;;
23555;SDS011;11956;53.184;8.578;2023-07-20T06:53:09;1.52;;;0.50;;
23555;SDS011;11956;53.184;8.578;2023-07-20T06:56:10;1.55;;;0.50;;
23555;SDS011;11956;53.184;8.578;2023-07-20T06:59:11;2.17;;;0.65;;
23555;SDS011;11956;53.184;8.578;2023-07-20T07:02:12;3.25;;;0.65;;
23555;SDS011;11956;53.184;8.578;2023-07-20T07:05:14;2.20;;;0.40;;
23555;SDS011;11956;53.184;8.578;2023-07-20T07:08:15;2.17;;;0.60;;
23555;SDS011;11956;53.184;8.578;2023-07-20T07:11:16;1.85;;;0.45;;
23555;SDS011;11956;53.184;8.578;2023-07-20T07:14:17;2.45;;;0.77;;
23555;SDS011;11956;53.184;8.578;2023-07-20T07:17:19;2.08;;;0.77;;
23555;SDS011;11956;53.184;8.578;2023-07-20T07:20:20;2.72;;;0.63;;
23555;SDS011;11956;53.184;8.578;2023-07-20T07:23:21;3.58;;;0.70;;
23555;SDS011;11956;53.184;8.578;2023-07-20T07:26:22;3.72;;;0.70;;
23555;SDS011;11956;53.184;8.578;2023-07-20T07:29:24;3.63;;;0.70;;
23555;SDS011;11956;53.184;8.578;2023-07-20T07:32:25;2.00;;;0.63;;
23555;SDS011;11956;53.184;8.578;2023-07-20T07:35:26;2.30;;;0.80;;
23555;SDS011;11956;53.184;8.578;2023-07-20T07:38:27;2.97;;;0.93;;
23555;SDS011;11956;53.184;8.578;2023-07-20T07:41:28;7.50;;;2.03;;
23555;SDS011;11956;53.184;8.578;2023-07-20T07:44:29;3.17;;;0.90;;
23555;SDS011;11956;53.184;8.578;2023-07-20T07:47:30;3.97;;;0.73;;
23555;SDS011;11956;53.184;8.578;2023-07-20T07:50:31;2.83;;;1.05;;
23555;SDS011;11956;53.184;8.578;2023-07-20T07:53:33;4.07;;;0.90;;
23555;SDS011;11956;53.184;8.578;2023-07-20T07:56:35;2.53;;;1.10;;
23555;SDS011;11956;53.184;8.578;2023-07-20T07:59:36;4.93;;;1.20;;
23555;SDS011;11956;53.184;8.578;2023-07-20T08:02:37;3.00;;;1.38;;
23555;SDS011;11956;53.184;8.578;2023-07-20T08:05:38;2.70;;;1.13;;
23555;SDS011;11956;53.184;8.578;2023-07-20T08:08:39;2.10;;;0.95;;
23555;SDS011;11956;53.184;8.578;2023-07-20T08:11:40;3.50;;;1.40;;
23555;SDS011;11956;53.184;8.578;2023-07-20T08:14:41;2.53;;;1.30;;
23555;SDS011;11956;53.184;8.578;2023-07-20T08:17:42;4.55;;;1.33;;
23555;SDS011;11956;53.184;8.578;2023-07-20T08:20:48;4.07;;;1.40;;
23555;SDS011;11956;53.184;8.578;2023-07-20T08:23:49;3.65;;;1.33;;
23555;SDS011;11956;53.184;8.578;2023-07-20T08:26:50;3.92;;;1.30;;
23555;SDS011;11956;53.184;8.578;2023-07-20T08:29:51;5.00;;;1.50;;
23555;SDS011;11956;53.184;8.578;2023-07-20T08:32:52;2.25;;;1.35;;
23555;SDS011;11956;53.184;8.578;2023-07-20T08:35:52;4.25;;;1.60;;
23555;SDS011;11956;53.184;8.578;2023-07-20T08:38:54;3.22;;;1.10;;
23555;SDS011;11956;53.184;8.578;2023-07-20T08:41:55;2.25;;;1.10;;
23555;SDS011;11956;53.184;8.578;2023-07-20T08:44:58;2.88;;;1.27;;
23555;SDS011;11956;53.184;8.578;2023-07-20T08:48:01;2.05;;;0.98;;
23555;SDS011;11956;53.184;8.578;2023-07-20T08:51:03;2.17;;;0.93;;
23555;SDS011;11956;53.184;8.578;2023-07-20T08:54:04;4.60;;;1.23;;
23555;SDS011;11956;53.184;8.578;2023-07-20T08:57:08;2.58;;;1.10;;
23555;SDS011;11956;53.184;8.578;2023-07-20T09:00:12;4.07;;;1.25;;
23555;SDS011;11956;53.184;8.578;2023-07-20T09:03:14;4.93;;;1.27;;
23555;SDS011;11956;53.184;8.578;2023-07-20T09:06:15;3.08;;;1.40;;
23555;SDS011;11956;53.184;8.578;2023-07-20T09:09:16;1.50;;;0.90;;
23555;SDS011;11956;53.184;8.578;2023-07-20T09:12:17;5.10;;;1.67;;
23555;SDS011;11956;53.184;8.578;2023-07-20T09:15:18;4.88;;;1.00;;
23555;SDS011;11956;53.184;8.578;2023-07-20T09:18:30;2.73;;;1.10;;
23555;SDS011;11956;53.184;8.578;2023-07-20T09:21:32;1.50;;;0.73;;
23555;SDS011;11956;53.184;8.578;2023-07-20T09:24:32;2.03;;;0.88;;
23555;SDS011;11956;53.184;8.578;2023-07-20T09:28:07;2.17;;;0.93;;
23555;SDS011;11956;53.184;8.578;2023-07-20T09:31:07;1.52;;;0.82;;
23555;SDS011;11956;53.184;8.578;2023-07-20T09:34:18;2.70;;;1.30;;
23555;SDS011;11956;53.184;8.578;2023-07-20T09:37:20;3.97;;;1.30;;
23555;SDS011;11956;53.184;8.578;2023-07-20T09:40:27;4.15;;;1.77;;
23555;SDS011;11956;53.184;8.578;2023-07-20T09:43:28;4.80;;;1.90;;
23555;SDS011;11956;53.184;8.578;2023-07-20T09:46:49;3.67;;;1.55;;
23555;SDS011;11956;53.184;8.578;2023-07-20T09:49:59;5.43;;;1.38;;
23555;SDS011;11956;53.184;8.578;2023-07-20T09:53:00;11.93;;;9.00;;
23555;SDS011;11956;53.184;8.578;2023-07-20T09:56:02;3.33;;;1.50;;
23555;SDS011;11956;53.184;8.578;2023-07-20T09:59:04;3.65;;;1.40;;
23555;SDS011;11956;53.184;8.578;2023-07-20T10:02:07;2.97;;;1.48;;
23555;SDS011;11956;53.184;8.578;2023-07-20T10:05:39;3.38;;;1.60;;
23555;SDS011;11956;53.184;8.578;2023-07-20T10:08:44;5.38;;;1.50;;
23555;SDS011;11956;53.184;8.578;2023-07-20T10:11:49;3.65;;;1.40;;
23555;SDS011;11956;53.184;8.578;2023-07-20T10:14:53;2.20;;;1.30;;
23555;SDS011;11956;53.184;8.578;2023-07-20T10:18:12;2.97;;;1.42;;
23555;SDS011;11956;53.184;8.578;2023-07-20T10:21:21;2.65;;;1.42;;
23555;SDS011;11956;53.184;8.578;2023-07-20T10:24:23;2.33;;;1.10;;
23555;SDS011;11956;53.184;8.578;2023-07-20T10:27:25;2.65;;;1.20;;
23555;SDS011;11956;53.184;8.578;2023-07-20T10:30:26;4.10;;;1.40;;
23555;SDS011;11956;53.184;8.578;2023-07-20T10:33:27;3.28;;;1.27;;
23555;SDS011;11956;53.184;8.578;2023-07-20T10:36:29;6.53;;;1.50;;
23555;SDS011;11956;53.184;8.578;2023-07-20T10:39:33;3.95;;;1.38;;
23555;SDS011;11956;53.184;8.578;2023-07-20T10:42:34;3.80;;;1.50;;
23555;SDS011;11956;53.184;8.578;2023-07-20T10:45:40;5.03;;;1.10;;
23555;SDS011;11956;53.184;8.578;2023-07-20T10:49:00;3.85;;;1.33;;
23555;SDS011;11956;53.184;8.578;2023-07-20T10:52:05;4.50;;;2.00;;
23555;SDS011;11956;53.184;8.578;2023-07-20T10:55:16;2.72;;;0.77;;
23555;SDS011;11956;53.184;8.578;2023-07-20T10:58:17;1.88;;;0.60;;
23555;SDS011;11956;53.184;8.578;2023-07-20T11:01:19;2.78;;;0.70;;
23555;SDS011;11956;53.184;8.578;2023-07-20T11:04:20;2.38;;;0.70;;
23555;SDS011;11956;53.184;8.578;2023-07-20T11:07:42;2.10;;;0.63;;
23555;SDS011;11956;53.184;8.578;2023-07-20T11:10:43;3.63;;;0.82;;
23555;SDS011;11956;53.184;8.578;2023-07-20T11:13:57;3.13;;;0.63;;
23555;SDS011;11956;53.184;8.578;2023-07-20T11:17:12;1.63;;;0.60;;
23555;SDS011;11956;53.184;8.578;2023-07-20T11:20:15;1.77;;;0.60;;
23555;SDS011;11956;53.184;8.578;2023-07-20T11:23:16;1.60;;;0.50;;
23555;SDS011;11956;53.184;8.578;2023-07-20T11:26:17;2.53;;;0.90;;
23555;SDS011;11956;53.184;8.578;2023-07-20T11:29:20;2.70;;;0.65;;
23555;SDS011;11956;53.184;8.578;2023-07-20T11:32:25;3.85;;;0.60;;
23555;SDS011;11956;53.184;8.578;2023-07-20T11:35:26;2.75;;;0.80;;
23555;SDS011;11956;53.184;8.578;2023-07-20T11:38:27;2.55;;;0.70;;
23555;SDS011;11956;53.184;8.578;2023-07-20T11:41:28;1.95;;;0.50;;
23555;SDS011;11956;53.184;8.578;2023-07-20T11:44:29;2.67;;;0.70;;
23555;SDS011;11956;53.184;8.578;2023-07-20T11:47:30;2.80;;;0.63;;
23555;SDS011;11956;53.184;8.578;2023-07-20T11:50:31;2.50;;;0.70;;
23555;SDS011;11956;53.184;8.578;2023-07-20T11:53:32;3.80;;;1.00;;
23555;SDS011;11956;53.184;8.578;2023-07-20T11:56:33;1.55;;;0.65;;
23555;SDS011;11956;53.184;8.578;2023-07-20T11:59:34;3.25;;;0.80;;
23555;SDS011;11956;53.184;8.578;2023-07-20T12:02:35;3.80;;;1.00;;
23555;SDS011;11956;53.184;8.578;2023-07-20T12:05:37;2.47;;;0.90;;
23555;SDS011;11956;53.184;8.578;2023-07-20T12:08:39;1.98;;;0.90;;
23555;SDS011;11956;53.184;8.578;2023-07-20T12:11:42;4.93;;;1.42;;
23555;SDS011;11956;53.184;8.578;2023-07-20T12:14:45;4.30;;;0.90;;
23555;SDS011;11956;53.184;8.578;2023-07-20T12:17:46;2.08;;;0.60;;
23555;SDS011;11956;53.184;8.578;2023-07-20T12:20:58;4.30;;;0.85;;
23555;SDS011;11956;53.184;8.578;2023-07-20T12:24:00;4.43;;;1.00;;
23555;SDS011;11956;53.184;8.578;2023-07-20T12:27:00;3.97;;;0.90;;
23555;SDS011;11956;53.184;8.578;2023-07-20T12:30:01;3.15;;;0.63;;
23555;SDS011;11956;53.184;8.578;2023-07-20T12:33:04;1.25;;;0.50;;
23555;SDS011;11956;53.184;8.578;2023-07-20T12:36:05;2.38;;;0.60;;
23555;SDS011;11956;53.184;8.578;2023-07-20T12:39:06;5.57;;;0.90;;
23555;SDS011;11956;53.184;8.578;2023-07-20T12:42:07;3.50;;;0.60;;
23555;SDS011;11956;53.184;8.578;2023-07-20T12:45:08;2.40;;;0.70;;
23555;SDS011;11956;53.184;8.578;2023-07-20T12:48:11;2.90;;;0.80;;
23555;SDS011;11956;53.184;8.578;2023-07-20T12:51:11;1.88;;;0.57;;
23555;SDS011;11956;53.184;8.578;2023-07-20T12:54:12;4.22;;;0.98;;
23555;SDS011;11956;53.184;8.578;2023-07-20T12:57:13;3.88;;;0.88;;
23555;SDS011;11956;53.184;8.578;2023-07-20T13:00:14;3.88;;;0.73;;
23555;SDS011;11956;53.184;8.578;2023-07-20T13:03:16;2.08;;;0.90;;
23555;SDS011;11956;53.184;8.578;2023-07-20T13:06:19;3.60;;;0.63;;
23555;SDS011;11956;53.184;8.578;2023-07-20T13:09:21;2.55;;;0.68;;
23555;SDS011;11956;53.184;8.578;2023-07-20T13:12:22;4.57;;;0.90;;
23555;SDS011;11956;53.184;8.578;2023-07-20T13:15:24;1.88;;;0.80;;
23555;SDS011;11956;53.184;8.578;2023-07-20T13:18:33;2.53;;;0.60;;
23555;SDS011;11956;53.184;8.578;2023-07-20T13:21:34;2.97;;;0.57;;
23555;SDS011;11956;53.184;8.578;2023-07-20T13:24:35;2.63;;;0.60;;
23555;SDS011;11956;53.184;8.578;2023-07-20T13:27:36;1.65;;;0.80;;
23555;SDS011;11956;53.184;8.578;2023-07-20T13:30:37;1.40;;;0.60;;
23555;SDS011;11956;53.184;8.578;2023-07-20T13:33:38;1.75;;;0.60;;
23555;SDS011;11956;53.184;8.578;2023-07-20T13:36:38;1.23;;;0.52;;
23555;SDS011;11956;53.184;8.578;2023-07-20T13:39:39;2.28;;;0.70;;
23555;SDS011;11956;53.184;8.578;2023-07-20T13:42:40;2.25;;;0.50;;
23555;SDS011;11956;53.184;8.578;2023-07-20T13:45:44;3.83;;;0.82;;
23555;SDS011;11956;53.184;8.578;2023-07-20T13:48:45;2.42;;;0.90;;
23555;SDS011;11956;53.184;8.578;2023-07-20T13:51:46;2.72;;;0.70;;
23555;SDS011;11956;53.184;8.578;2023-07-20T13:54:47;2.05;;;0.55;;
23555;SDS011;11956;53.184;8.578;2023-07-20T13:57:48;2.15;;;0.50;;
23555;SDS011;11956;53.184;8.578;2023-07-20T14:00:49;2.92;;;0.70;;
23555;SDS011;11956;53.184;8.578;2023-07-20T14:03:50;3.35;;;1.00;;
23555;SDS011;11956;53.184;8.578;2023-07-20T14:06:51;5.38;;;0.93;;
23555;SDS011;11956;53.184;8.578;2023-07-20T14:09:52;2.65;;;0.80;;
23555;SDS011;11956;53.184;8.578;2023-07-20T14:12:52;1.27;;;0.43;;
23555;SDS011;11956;53.184;8.578;2023-07-20T14:15:53;5.05;;;0.93;;
23555;SDS011;11956;53.184;8.578;2023-07-20T14:18:54;3.72;;;0.60;;
23555;SDS011;11956;53.184;8.578;2023-07-20T14:21:55;2.53;;;0.73;;
23555;SDS011;11956;53.184;8.578;2023-07-20T14:24:59;2.38;;;0.60;;
23555;SDS011;11956;53.184;8.578;2023-07-20T14:28:00;3.22;;;0.70;;
23555;SDS011;11956;53.184;8.578;2023-07-20T14:31:01;5.15;;;0.88;;
23555;SDS011;11956;53.184;8.578;2023-07-20T14:34:02;2.85;;;0.88;;
23555;SDS011;11956;53.184;8.578;2023-07-20T14:37:02;6.38;;;0.90;;
23555;SDS011;11956;53.184;8.578;2023-07-20T14:40:04;3.40;;;0.90;;
23555;SDS011;11956;53.184;8.578;2023-07-20T14:43:06;6.68;;;1.10;;
23555;SDS011;11956;53.184;8.578;2023-07-20T14:46:07;3.50;;;0.82;;
23555;SDS011;11956;53.184;8.578;2023-07-20T14:49:08;4.80;;;1.58;;
23555;SDS011;11956;53.184;8.578;2023-07-20T14:52:10;2.15;;;0.70;;
23555;SDS011;11956;53.184;8.578;2023-07-20T14:55:12;1.77;;;0.50;;
23555;SDS011;11956;53.184;8.578;2023-07-20T14:58:13;4.90;;;0.90;;
23555;SDS011;11956;53.184;8.578;2023-07-20T15:01:14;4.55;;;0.88;;
23555;SDS011;11956;53.184;8.578;2023-07-20T15:04:15;4.10;;;0.70;;
23555;SDS011;11956;53.184;8.578;2023-07-20T15:07:17;3.03;;;0.70;;
23555;SDS011;11956;53.184;8.578;2023-07-20T15:10:20;3.67;;;0.93;;
23555;SDS011;11956;53.184;8.578;2023-07-20T15:13:22;3.22;;;0.88;;
23555;SDS011;11956;53.184;8.578;2023-07-20T15:16:23;4.35;;;0.90;;
23555;SDS011;11956;53.184;8.578;2023-07-20T15:19:24;5.70;;;1.10;;
23555;SDS011;11956;53.184;8.578;2023-07-20T15:22:25;5.70;;;0.93;;
23555;SDS011;11956;53.184;8.578;2023-07-20T15:25:26;5.63;;;0.93;;
23555;SDS011;11956;53.184;8.578;2023-07-20T15:28:27;3.10;;;0.80;;
23555;SDS011;11956;53.184;8.578;2023-07-20T15:31:28;4.07;;;1.10;;
23555;SDS011;11956;53.184;8.578;2023-07-20T15:34:28;4.53;;;1.20;;
23555;SDS011;11956;53.184;8.578;2023-07-20T15:37:29;3.90;;;0.90;;
23555;SDS011;11956;53.184;8.578;2023-07-20T15:40:33;3.92;;;0.80;;
23555;SDS011;11956;53.184;8.578;2023-07-20T15:43:33;7.38;;;1.90;;
23555;SDS011;11956;53.184;8.578;2023-07-20T15:49:41;6.25;;;1.13;;
23555;SDS011;11956;53.184;8.578;2023-07-20T15:52:43;4.18;;;0.80;;
23555;SDS011;11956;53.184;8.578;2023-07-20T15:55:44;4.88;;;1.20;;
23555;SDS011;11956;53.184;8.578;2023-07-20T15:58:44;3.83;;;1.08;;
23555;SDS011;11956;53.184;8.578;2023-07-20T16:01:45;3.05;;;0.73;;
23555;SDS011;11956;53.184;8.578;2023-07-20T16:04:46;4.32;;;1.10;;
23555;SDS011;11956;53.184;8.578;2023-07-20T16:07:47;6.82;;;1.17;;
23555;SDS011;11956;53.184;8.578;2023-07-20T16:10:48;4.13;;;0.90;;
23555;SDS011;11956;53.184;8.578;2023-07-20T16:13:49;3.42;;;0.70;;
23555;SDS011;11956;53.184;8.578;2023-07-20T16:16:52;6.22;;;1.02;;
23555;SDS011;11956;53.184;8.578;2023-07-20T16:19:53;4.28;;;1.10;;
23555;SDS011;11956;53.184;8.578;2023-07-20T16:22:54;6.53;;;1.77;;
23555;SDS011;11956;53.184;8.578;2023-07-20T16:25:55;5.82;;;1.50;;
23555;SDS011;11956;53.184;8.578;2023-07-20T16:28:56;4.63;;;1.30;;
23555;SDS011;11956;53.184;8.578;2023-07-20T16:31:58;5.10;;;1.40;;
23555;SDS011;11956;53.184;8.578;2023-07-20T16:34:59;5.97;;;1.50;;
23555;SDS011;11956;53.184;8.578;2023-07-20T16:38:01;7.43;;;1.75;;
23555;SDS011;11956;53.184;8.578;2023-07-20T16:41:02;5.15;;;1.45;;
23555;SDS011;11956;53.184;8.578;2023-07-20T16:44:07;5.32;;;2.08;;
23555;SDS011;11956;53.184;8.578;2023-07-20T16:47:07;9.75;;;2.85;;
23555;SDS011;11956;53.184;8.578;2023-07-20T16:50:08;8.93;;;3.40;;
23555;SDS011;11956;53.184;8.578;2023-07-20T16:53:10;7.78;;;3.13;;
23555;SDS011;11956;53.184;8.578;2023-07-20T16:56:11;7.18;;;3.38;;
23555;SDS011;11956;53.184;8.578;2023-07-20T16:59:12;9.77;;;3.28;;
23555;SDS011;11956;53.184;8.578;2023-07-20T17:02:12;9.52;;;2.90;;
23555;SDS011;11956;53.184;8.578;2023-07-20T17:05:14;6.53;;;2.70;;
23555;SDS011;11956;53.184;8.578;2023-07-20T17:08:15;5.45;;;2.17;;
23555;SDS011;11956;53.184;8.578;2023-07-20T17:11:17;9.05;;;2.20;;
23555;SDS011;11956;53.184;8.578;2023-07-20T17:14:18;8.60;;;2.55;;
23555;SDS011;11956;53.184;8.578;2023-07-20T17:17:19;7.28;;;2.58;;
23555;SDS011;11956;53.184;8.578;2023-07-20T17:20:20;8.38;;;2.70;;
23555;SDS011;11956;53.184;8.578;2023-07-20T17:23:21;5.95;;;2.53;;
23555;SDS011;11956;53.184;8.578;2023-07-20T17:26:22;5.95;;;2.53;;
23555;SDS011;11956;53.184;8.578;2023-07-20T17:29:23;5.22;;;1.85;;
23555;SDS011;11956;53.184;8.578;2023-07-20T17:32:24;7.07;;;2.63;;
23555;SDS011;11956;53.184;8.578;2023-07-20T17:35:25;4.65;;;2.00;;
23555;SDS011;11956;53.184;8.578;2023-07-20T17:38:27;5.30;;;2.40;;
23555;SDS011;11956;53.184;8.578;2023-07-20T17:41:29;5.97;;;2.35;;
23555;SDS011;11956;53.184;8.578;2023-07-20T17:44:29;5.25;;;2.47;;
23555;SDS011;11956;53.184;8.578;2023-07-20T17:47:31;4.05;;;2.08;;
23555;SDS011;11956;53.184;8.578;2023-07-20T17:50:32;4.75;;;1.80;;
23555;SDS011;11956;53.184;8.578;2023-07-20T17:53:33;5.75;;;2.00;;
23555;SDS011;11956;53.184;8.578;2023-07-20T17:56:34;4.78;;;1.95;;
23555;SDS011;11956;53.184;8.578;2023-07-20T17:59:35;4.60;;;2.13;;
23555;SDS011;11956;53.184;8.578;2023-07-20T18:02:38;4.50;;;1.60;;
23555;SDS011;11956;53.184;8.578;2023-07-20T18:05:39;3.63;;;1.92;;
23555;SDS011;11956;53.184;8.578;2023-07-20T18:08:40;6.47;;;2.20;;
23555;SDS011;11956;53.184;8.578;2023-07-20T18:11:42;3.67;;;2.00;;
23555;SDS011;11956;53.184;8.578;2023-07-20T18:14:42;3.83;;;1.98;;
23555;SDS011;11956;53.184;8.578;2023-07-20T18:17:45;3.42;;;1.92;;
23555;SDS011;11956;53.184;8.578;2023-07-20T18:20:46;4.10;;;1.67;;
23555;SDS011;11956;53.184;8.578;2023-07-20T18:23:46;5.25;;;2.05;;
23555;SDS011;11956;53.184;8.578;2023-07-20T18:26:47;7.30;;;2.70;;
23555;SDS011;11956;53.184;8.578;2023-07-20T18:29:48;6.80;;;2.25;;
23555;SDS011;11956;53.184;8.578;2023-07-20T18:32:50;5.65;;;2.13;;